Latest Weather Observations for Edinburgh

IDS60901

Issued at 12:51 pm CDT Tuesday 21 November 2017 (issued every 10 minutes, with the page automatically refreshed every 10 minutes)

About weather observations | Map of Adelaide area stations | Latest observations for Adelaide area | Other Formats
Station Details ID: 023083 Name: EDINBURGH RAAF Lat: -34.71 Lon: 138.62 Height: 16.54 m
Data from the previous 72 hours. | See also: Recent months at Edinburgh
Date/Time
CDT
Temp
°C
App
Temp
°C
Dew
Point
°C
Rel
Hum
%
Delta-T
°C
Wind Press
QNH
hPa
Press
MSL
hPa
Rain since
9am
mm
Dir  Spd
km/h
Gust
km/h
Spd
kts
Gust
kts
21/12:42pm 34.5 27.9 4.1 15 16.0 NE 28 46 15 25 1013.4 1013.3 0.0
21/12:30pm 34.4 28.5 4.0 15 16.0 NE 24 37 13 20 1013.5 1013.4 0.0
21/12:11pm 34.8 28.2 4.4 15 16.1 NE 28 50 15 27 1013.7 1013.6 0.0
21/12:00pm 34.3 27.1 4.9 16 15.6 NE 32 43 17 23 1013.8 1013.7 0.0
21/11:30am 33.5 26.7 5.1 17 15.1 NE 30 43 16 23 1014.4 1014.3 0.0
21/11:00am 33.6 26.6 6.0 18 14.9 NNE 32 44 17 24 1014.4 1014.3 0.0
21/10:30am 33.2 26.1 5.7 18 14.7 NNE 32 43 17 23 1014.6 1014.5 0.0
21/10:24am 33.2 26.1 6.5 19 14.5 NNE 33 52 18 28 1014.6 1014.5 0.0
21/10:00am 33.0 26.2 7.1 20 14.2 NNE 32 43 17 23 1014.6 1014.5 0.0
21/09:30am 31.4 24.5 6.5 21 13.4 NE 32 41 17 22 1014.7 1014.6 0.0
21/09:00am 29.5 23.2 7.4 25 11.9 NNE 30 39 16 21 1014.9 1014.8 0.0
21/08:30am 27.8 21.2 7.6 28 10.8 NE 32 39 17 21 1014.9 1014.8 0.0
21/08:00am 26.8 20.6 7.8 30 10.2 NE 30 39 16 21 1014.7 1014.6 0.0
21/07:30am 26.2 19.9 7.3 30 10.0 NE 30 37 16 20 1014.6 1014.5 0.0
21/07:00am 25.6 18.9 7.2 31 9.7 NE 32 41 17 22 1014.5 1014.4 0.0
21/06:30am 25.2 18.9 7.3 32 9.4 NE 30 39 16 21 1014.2 1014.1 0.0
21/06:00am 25.0 18.7 7.2 32 9.3 NE 30 41 16 22 1014.0 1013.9 0.0
21/05:30am 25.3 18.9 7.0 31 9.6 NE 30 39 16 21 1013.7 1013.6 0.0
21/05:00am 25.6 18.9 7.2 31 9.7 NE 32 46 17 25 1013.5 1013.4 0.0
21/04:30am 25.7 19.8 7.3 31 9.7 NE 28 39 15 21 1013.4 1013.3 0.0
21/04:00am 26.0 20.9 7.6 31 9.8 NE 24 30 13 16 1013.4 1013.3 0.0
21/03:30am 26.6 21.5 7.6 30 10.1 NE 24 33 13 18 1013.4 1013.3 0.0
21/03:00am 26.7 21.6 7.7 30 10.2 NE 24 32 13 17 1013.3 1013.2 0.0
21/02:30am 26.7 22.4 7.7 30 10.2 NE 20 28 11 15 1013.3 1013.2 0.0
21/02:00am 27.0 22.2 7.5 29 10.4 NE 22 28 12 15 1013.3 1013.2 0.0
21/01:30am 27.3 23.0 7.7 29 10.5 NE 20 28 11 15 1013.4 1013.3 0.0
21/01:00am 27.4 23.3 7.8 29 10.5 NE 19 24 10 13 1013.6 1013.5 0.0
21/12:30am 28.0 23.7 7.8 28 10.9 ENE 20 28 11 15 1013.6 1013.5 0.0
21/12:00am 28.2 23.8 7.4 27 11.2 ENE 20 28 11 15 1013.7 1013.6 0.0
 
Date/Time
CDT
Temp
°C
App
Temp
°C
Dew
Point
°C
Rel
Hum
%
Delta-T
°C
Wind Press
QNH
hPa
Press
MSL
hPa
Rain since
9am
mm
Dir  Spd
km/h
Gust
km/h
Spd
kts
Gust
kts
20/11:30pm 28.6 24.5 7.8 27 11.3 ENE 19 26 10 14 1013.6 1013.5 0.0
20/11:00pm 28.9 24.5 7.5 26 11.5 ENE 20 26 11 14 1013.6 1013.5 0.0
20/10:30pm 28.9 25.0 6.9 25 11.7 ENE 17 22 9 12 1013.6 1013.5 0.0
20/10:00pm 29.1 25.0 7.7 26 11.6 ENE 19 28 10 15 1013.5 1013.4 0.0
20/09:30pm 29.4 25.3 7.9 26 11.7 ENE 19 24 10 13 1013.2 1013.1 0.0
20/09:00pm 29.8 26.4 7.7 25 12.0 E 15 22 8 12 1012.9 1012.8 0.0
20/08:30pm 30.6 27.2 7.7 24 12.5 E 15 20 8 11 1012.6 1012.5 0.0
20/08:00pm 31.4 27.9 7.1 22 13.2 ENE 15 20 8 11 1012.4 1012.3 0.0
20/07:30pm 32.0 28.2 7.6 22 13.4 ENE 17 24 9 13 1012.1 1012.0 0.0
20/07:00pm 32.4 27.4 8.0 22 13.5 E 24 33 13 18 1011.9 1011.8 0.0
20/06:30pm 33.1 27.5 7.1 20 14.3 ENE 26 35 14 19 1011.6 1011.5 0.0
20/06:00pm 33.5 28.4 7.5 20 14.4 NE 24 35 13 19 1011.5 1011.4 0.0
20/05:30pm 33.7 27.8 7.6 20 14.5 ENE 28 44 15 24 1011.6 1011.5 0.0
20/05:00pm 34.4 29.6 7.5 19 14.9 ENE 22 43 12 23 1011.7 1011.6 0.0
20/04:30pm 34.3 29.7 8.1 20 14.7 ENE 22 33 12 18 1011.7 1011.6 0.0
20/04:00pm 34.8 30.7 8.5 20 14.9 NE 20 30 11 16 1011.9 1011.8 0.0
20/03:30pm 34.7 30.7 8.4 20 14.8 ENE 19 32 10 17 1012.0 1011.9 0.0
20/03:00pm 34.1 29.6 8.7 21 14.3 NE 22 33 12 18 1012.5 1012.4 0.0
20/02:30pm 34.6 30.8 9.1 21 14.5 ENE 19 24 10 13 1012.8 1012.7 0.0
20/02:00pm 34.6 30.4 9.8 22 14.3 NE 22 35 12 19 1013.2 1013.1 0.0
20/01:30pm 33.8 28.7 9.1 22 14.0 NE 26 41 14 22 1013.6 1013.5 0.0
20/01:00pm 33.4 28.0 9.4 23 13.7 ENE 28 44 15 24 1013.9 1013.8 0.0
20/12:30pm 32.4 26.5 9.2 24 13.1 NE 30 43 16 23 1014.4 1014.3 0.0
20/12:00pm 32.5 26.8 9.9 25 12.9 NE 30 41 16 22 1014.8 1014.7 0.0
20/11:30am 31.7 26.7 11.0 28 12.0 NE 28 39 15 21 1015.2 1015.1 0.0
20/11:00am 31.2 26.1 10.5 28 11.9 NE 28 39 15 21 1015.4 1015.3 0.0
20/10:30am 29.7 24.8 11.2 31 10.6 NE 28 39 15 21 1015.6 1015.5 0.0
20/10:00am 29.2 24.7 11.3 33 10.3 NE 26 35 14 19 1015.7 1015.6 0.0
20/09:30am 28.8 23.3 11.8 35 9.8 ENE 32 44 17 24 1015.8 1015.7 0.0
20/09:00am 28.1 22.0 11.6 36 9.5 NE 35 50 19 27 1015.7 1015.6 0.0
20/08:30am 27.5 21.2 11.1 36 9.3 NE 35 48 19 26 1015.8 1015.7 0.0
20/08:04am 27.3 21.4 10.5 35 9.5 NE 32 50 17 27 1015.6 1015.5 0.0
20/08:00am 27.7 22.3 10.9 35 9.5 NE 30 43 16 23 1015.5 1015.4 0.0
20/07:30am 26.1 20.4 11.1 39 8.5 NE 32 43 17 23 1015.4 1015.3 0.0
20/07:00am 25.5 19.7 10.9 40 8.2 NE 32 44 17 24 1015.2 1015.1 0.0
20/06:30am 25.7 20.2 10.7 39 8.4 NE 30 43 16 23 1015.0 1014.9 0.0
20/06:00am 25.7 19.9 10.7 39 8.4 NE 32 46 17 25 1014.7 1014.6 0.0
20/05:30am 25.6 19.6 10.2 38 8.5 NE 32 46 17 25 1014.4 1014.3 0.0
20/05:00am 25.2 20.0 10.3 39 8.3 NE 28 39 15 21 1014.2 1014.1 0.0
20/04:30am 25.6 20.0 10.2 38 8.5 NE 30 43 16 23 1014.0 1013.9 0.0
20/04:00am 25.7 20.5 10.3 38 8.6 NE 28 35 15 19 1013.8 1013.7 0.0
20/03:30am 26.3 20.3 10.0 36 9.0 ENE 32 41 17 22 1013.8 1013.7 0.0
20/03:00am 26.2 21.2 9.5 35 9.2 ENE 26 35 14 19 1013.7 1013.6 0.0
20/02:30am 26.4 21.7 9.3 34 9.4 ENE 24 32 13 17 1013.6 1013.5 0.0
20/02:00am 26.1 22.3 9.0 34 9.3 ENE 19 28 10 15 1013.5 1013.4 0.0
20/01:30am 26.0 22.0 8.9 34 9.3 ENE 20 32 11 17 1013.5 1013.4 0.0
20/01:00am 26.2 22.2 9.1 34 9.3 ENE 20 30 11 16 1013.4 1013.3 0.0
20/12:30am 26.2 22.4 9.1 34 9.3 ENE 19 28 10 15 1013.5 1013.4 0.0
20/12:00am 26.5 22.8 9.4 34 9.4 ENE 19 26 10 14 1013.6 1013.5 0.0
 
Date/Time
CDT
Temp
°C
App
Temp
°C
Dew
Point
°C
Rel
Hum
%
Delta-T
°C
Wind Press
QNH
hPa
Press
MSL
hPa
Rain since
9am
mm
Dir  Spd
km/h
Gust
km/h
Spd
kts
Gust
kts
19/11:30pm 26.5 22.7 8.9 33 9.6 ENE 19 30 10 16 1013.5 1013.4 0.0
19/11:00pm 26.7 22.9 9.1 33 9.6 ENE 19 26 10 14 1013.3 1013.2 0.0
19/10:30pm 26.9 23.4 8.8 32 9.9 E 17 24 9 13 1013.3 1013.2 0.0
19/10:00pm 27.0 23.5 8.9 32 9.9 E 17 24 9 13 1013.1 1013.0 0.0
19/09:30pm 27.0 23.7 9.4 33 9.7 E 17 24 9 13 1012.9 1012.8 0.0
19/09:00pm 27.5 24.5 9.3 32 10.0 E 15 20 8 11 1012.8 1012.7 0.0
19/08:30pm 28.2 26.0 9.5 31 10.4 E 11 17 6 9 1012.6 1012.5 0.0
19/08:00pm 29.3 26.6 8.9 28 11.3 E 13 24 7 13 1012.6 1012.5 0.0
19/07:30pm 30.1 26.5 8.5 26 11.9 ENE 17 26 9 14 1012.4 1012.3 0.0
19/07:00pm 30.4 26.2 8.2 25 12.2 ENE 20 30 11 16 1012.2 1012.1 0.0
19/06:30pm 31.4 26.9 8.4 24 12.8 NE 22 33 12 18 1011.9 1011.8 0.0
19/06:00pm 31.3 26.4 7.1 22 13.1 ENE 22 32 12 17 1011.8 1011.7 0.0
19/05:30pm 31.7 27.1 8.0 23 13.1 ENE 22 32 12 17 1011.9 1011.8 0.0
19/05:00pm 31.5 27.1 7.2 22 13.2 ENE 20 32 11 17 1011.9 1011.8 0.0
19/04:30pm 31.5 26.3 7.2 22 13.2 ENE 24 37 13 20 1011.8 1011.7 0.0
19/04:00pm 31.6 27.2 7.3 22 13.3 NE 20 33 11 18 1012.3 1012.2 0.0
19/03:30pm 31.9 27.1 8.8 24 12.9 NE 24 33 13 18 1012.6 1012.5 0.0
19/03:00pm 31.0 26.4 8.1 24 12.6 ENE 22 33 12 18 1013.2 1013.1 0.0
19/02:30pm 30.9 26.5 7.4 23 12.8 ENE 20 35 11 19 1013.6 1013.5 0.0
19/02:00pm 30.4 26.4 8.2 25 12.2 ENE 19 32 10 17 1014.1 1014.0 0.0
19/01:30pm 30.1 26.5 8.5 26 11.9 NE 17 28 9 15 1014.4 1014.3 0.0
19/01:00pm 29.6 25.8 9.2 28 11.4 NE 19 33 10 18 1014.5 1014.4 0.0
19/12:30pm 29.0 25.2 9.2 29 11.0 ENE 19 30 10 16 1014.7 1014.6 0.0
19/12:00pm 28.3 23.7 9.6 31 10.4 ENE 24 35 13 19 1014.9 1014.8 0.0
19/11:30am 28.3 24.8 10.9 34 9.9 ENE 20 32 11 17 1015.1 1015.0 0.0
19/11:00am 27.6 23.8 11.2 36 9.4 E 22 32 12 17 1015.2 1015.1 0.0
19/10:30am 26.3 22.6 11.6 40 8.4 ENE 22 32 12 17 1015.2 1015.1 0.0
19/10:00am 25.6 22.6 12.4 43 7.6 ENE 20 26 11 14 1015.2 1015.1 0.0
19/09:30am 24.7 21.8 13.0 48 6.8 ENE 20 30 11 16 1015.4 1015.3 0.0
19/09:00am 23.9 21.4 13.4 51 6.1 ENE 19 24 10 13 1015.4 1015.3 0.0
19/08:30am 22.4 19.8 13.2 56 5.3 ENE 19 28 10 15 1015.1 1015.0 0.0
19/08:00am 21.2 19.0 13.4 61 4.5 ENE 17 26 9 14 1014.8 1014.7 0.0
19/07:30am 16.6 16.9 14.6 88 1.1 W 6 7 3 4 1014.7 1014.6 0.0
19/07:00am 14.4 14.0 13.1 92 0.7 W 7 11 4 6 1014.5 1014.4 0.0
19/06:30am 12.3 11.3 10.9 91 0.7 NW 7 11 4 6 1014.2 1014.1 0.0
19/06:00am 12.6 12.3 11.3 92 0.7 W 4 7 2 4 1014.0 1013.9 0.0
19/05:30am 13.1 13.6 11.7 91 0.7 CALM 0 0 0 0 1013.8 1013.7 0.0
19/05:00am 13.0 13.4 11.4 90 0.8 CALM 0 0 0 0 1013.9 1013.8 0.0
19/04:30am 13.3 13.8 11.5 89 1.0 CALM 0 0 0 0 1014.2 1014.1 0.0
19/04:00am 13.7 13.2 12.1 90 0.9 NNE 6 7 3 4 1014.2 1014.1 0.0
19/03:30am 13.7 12.6 12.1 90 0.9 WNW 9 13 5 7 1014.0 1013.9 0.0
19/03:00am 13.7 12.6 11.8 88 1.0 WNW 9 13 5 7 1013.8 1013.7 0.0
19/02:30am 15.3 15.8 11.5 78 2.0 CALM 0 6 0 3 1013.9 1013.8 0.0
19/02:00am 17.2 16.4 12.9 76 2.4 ESE 9 17 5 9 1013.9 1013.8 0.0
19/01:30am 17.1 15.8 12.6 75 2.5 SE 11 19 6 10 1014.3 1014.2 0.0
19/01:00am 17.2 16.0 12.7 75 2.5 ESE 11 20 6 11 1014.6 1014.5 0.0
19/12:30am 17.3 14.9 12.6 74 2.6 ESE 17 28 9 15 1014.6 1014.5 0.0
19/12:00am 17.2 15.2 12.7 75 2.5 SE 15 20 8 11 1014.8 1014.7 0.0
 
Date/Time
CDT
Temp
°C
App
Temp
°C
Dew
Point
°C
Rel
Hum
%
Delta-T
°C
Wind Press
QNH
hPa
Press
MSL
hPa
Rain since
9am
mm
Dir  Spd
km/h
Gust
km/h
Spd
kts
Gust
kts
18/11:30pm 17.4 15.0 12.7 74 2.6 ESE 17 26 9 14 1015.1 1015.0 0.0
18/11:00pm 17.6 16.0 12.7 73 2.7 ESE 13 15 7 8 1015.2 1015.1 0.0
18/10:30pm 18.1 16.9 12.8 71 3.0 ESE 11 17 6 9 1015.3 1015.2 0.0
18/10:00pm 18.7 17.1 12.9 69 3.3 ESE 13 24 7 13 1015.2 1015.1 0.0
18/09:30pm 19.1 18.0 13.1 68 3.4 SE 11 15 6 8 1014.8 1014.7 0.0
18/09:00pm 19.7 18.6 13.2 66 3.7 SE 11 17 6 9 1014.4 1014.3 0.0
18/08:30pm 20.5 19.1 13.5 64 4.0 ESE 13 20 7 11 1014.1 1014.0 0.0
18/08:00pm 20.5 19.9 13.5 64 4.0 S 9 13 5 7 1014.0 1013.9 0.0
18/07:30pm 21.1 19.0 13.5 62 4.4 SSW 17 20 9 11 1014.0 1013.9 0.0
18/07:00pm 21.3 18.9 13.7 62 4.4 SW 19 24 10 13 1013.9 1013.8 0.0
18/06:30pm 21.4 18.4 13.8 62 4.4 SW 22 28 12 15 1013.8 1013.7 0.0
18/06:00pm 21.8 18.0 13.7 60 4.7 SW 26 32 14 17 1013.9 1013.8 0.0
18/05:30pm 22.1 18.4 14.0 60 4.7 SW 26 32 14 17 1013.8 1013.7 0.0
18/05:00pm 21.8 18.1 13.9 61 4.6 SW 26 32 14 17 1013.9 1013.8 0.0
18/04:30pm 21.9 18.4 14.5 63 4.3 SW 26 32 14 17 1014.1 1014.0 0.0
18/04:00pm 21.5 17.3 13.4 60 4.7 WSW 28 33 15 18 1014.4 1014.3 0.0
18/03:30pm 22.0 18.4 14.1 61 4.6 WSW 26 32 14 17 1014.5 1014.4 0.0
18/03:00pm 21.6 18.2 13.8 61 4.5 WSW 24 32 13 17 1014.8 1014.7 0.0
18/02:30pm 22.2 19.8 14.3 61 4.6 SW 20 32 11 17 1015.1 1015.0 0.0
18/02:00pm 21.4 19.6 13.3 60 4.6 WSW 15 20 8 11 1015.2 1015.1 0.0
18/01:30pm 21.1 19.4 13.5 62 4.4 SW 15 20 8 11 1015.6 1015.5 0.0
18/01:00pm 20.4 20.2 13.6 65 3.9 S 7 15 4 8 1016.0 1015.9 0.0

Latest Capital City Observations: Canberra | Sydney | Melbourne | Brisbane | Adelaide | Perth | Hobart | Darwin

Other Formats:

Comma delimited format used in spreadsheet applications
http://www.bom.gov.au/fwo/IDS60901/IDS60901.95676.axf

JavaScript Object Notation format (JSON) in row-major order
http://www.bom.gov.au/fwo/IDS60901/IDS60901.95676.json